sensor_id;sensor_type;location;lat;lon;timestamp;P1;durP1;ratioP1;P2;durP2;ratioP2
37787;SDS011;23627;53.302;-6.362;2022-08-02T00:00:22;2.63;;;0.90;;
37787;SDS011;23627;53.302;-6.362;2022-08-02T00:02:48;1.98;;;1.00;;
37787;SDS011;23627;53.302;-6.362;2022-08-02T00:05:14;2.78;;;0.70;;
37787;SDS011;23627;53.302;-6.362;2022-08-02T00:07:40;2.15;;;0.80;;
37787;SDS011;23627;53.302;-6.362;2022-08-02T00:10:06;0.95;;;0.60;;
37787;SDS011;23627;53.302;-6.362;2022-08-02T00:12:33;1.33;;;0.60;;
37787;SDS011;23627;53.302;-6.362;2022-08-02T00:14:59;1.25;;;0.70;;
37787;SDS011;23627;53.302;-6.362;2022-08-02T00:17:25;1.70;;;0.70;;
37787;SDS011;23627;53.302;-6.362;2022-08-02T00:19:51;1.98;;;0.77;;
37787;SDS011;23627;53.302;-6.362;2022-08-02T00:22:16;3.70;;;0.80;;
37787;SDS011;23627;53.302;-6.362;2022-08-02T00:24:42;2.75;;;0.90;;
37787;SDS011;23627;53.302;-6.362;2022-08-02T00:27:08;1.20;;;0.65;;
37787;SDS011;23627;53.302;-6.362;2022-08-02T00:29:34;1.40;;;0.70;;
37787;SDS011;23627;53.302;-6.362;2022-08-02T00:32:01;2.50;;;0.77;;
37787;SDS011;23627;53.302;-6.362;2022-08-02T00:34:27;2.03;;;0.73;;
37787;SDS011;23627;53.302;-6.362;2022-08-02T00:36:53;1.67;;;0.80;;
37787;SDS011;23627;53.302;-6.362;2022-08-02T00:39:19;2.40;;;0.68;;
37787;SDS011;23627;53.302;-6.362;2022-08-02T00:41:45;2.17;;;0.90;;
37787;SDS011;23627;53.302;-6.362;2022-08-02T00:44:13;1.83;;;0.52;;
37787;SDS011;23627;53.302;-6.362;2022-08-02T00:46:43;2.40;;;0.68;;
37787;SDS011;23627;53.302;-6.362;2022-08-02T00:49:09;2.60;;;0.70;;
37787;SDS011;23627;53.302;-6.362;2022-08-02T00:51:36;5.50;;;1.33;;
37787;SDS011;23627;53.302;-6.362;2022-08-02T00:54:02;1.42;;;0.82;;
37787;SDS011;23627;53.302;-6.362;2022-08-02T00:56:28;1.85;;;0.60;;
37787;SDS011;23627;53.302;-6.362;2022-08-02T00:58:53;1.80;;;0.57;;
37787;SDS011;23627;53.302;-6.362;2022-08-02T01:01:19;1.73;;;0.60;;
37787;SDS011;23627;53.302;-6.362;2022-08-02T01:04:03;2.95;;;0.80;;
37787;SDS011;23627;53.302;-6.362;2022-08-02T01:06:33;2.45;;;0.82;;
37787;SDS011;23627;53.302;-6.362;2022-08-02T01:09:00;1.70;;;0.63;;
37787;SDS011;23627;53.302;-6.362;2022-08-02T01:11:27;2.42;;;1.00;;
37787;SDS011;23627;53.302;-6.362;2022-08-02T01:13:58;1.25;;;0.70;;
37787;SDS011;23627;53.302;-6.362;2022-08-02T01:16:30;1.75;;;0.82;;
37787;SDS011;23627;53.302;-6.362;2022-08-02T01:19:01;2.75;;;0.70;;
37787;SDS011;23627;53.302;-6.362;2022-08-02T01:21:40;4.28;;;1.08;;
37787;SDS011;23627;53.302;-6.362;2022-08-02T01:30:04;1.20;;;0.73;;
37787;SDS011;23627;53.302;-6.362;2022-08-02T01:32:32;2.53;;;0.85;;
37787;SDS011;23627;53.302;-6.362;2022-08-02T01:35:05;2.10;;;0.70;;
37787;SDS011;23627;53.302;-6.362;2022-08-02T01:37:46;1.60;;;0.60;;
37787;SDS011;23627;53.302;-6.362;2022-08-02T01:40:15;1.77;;;0.70;;
37787;SDS011;23627;53.302;-6.362;2022-08-02T01:42:47;1.88;;;0.65;;
37787;SDS011;23627;53.302;-6.362;2022-08-02T01:45:15;2.28;;;0.90;;
37787;SDS011;23627;53.302;-6.362;2022-08-02T01:47:43;1.73;;;0.70;;
37787;SDS011;23627;53.302;-6.362;2022-08-02T01:50:11;2.15;;;0.65;;
37787;SDS011;23627;53.302;-6.362;2022-08-02T01:52:47;1.52;;;0.60;;
37787;SDS011;23627;53.302;-6.362;2022-08-02T01:55:17;1.13;;;0.90;;
37787;SDS011;23627;53.302;-6.362;2022-08-02T01:57:47;2.20;;;0.50;;
37787;SDS011;23627;53.302;-6.362;2022-08-02T02:00:16;1.30;;;0.57;;
37787;SDS011;23627;53.302;-6.362;2022-08-02T02:02:44;3.20;;;0.57;;
37787;SDS011;23627;53.302;-6.362;2022-08-02T02:05:13;1.20;;;0.60;;
37787;SDS011;23627;53.302;-6.362;2022-08-02T02:07:43;0.82;;;0.40;;
37787;SDS011;23627;53.302;-6.362;2022-08-02T02:10:14;2.00;;;0.50;;
37787;SDS011;23627;53.302;-6.362;2022-08-02T02:12:43;2.45;;;0.85;;
37787;SDS011;23627;53.302;-6.362;2022-08-02T02:15:13;2.20;;;0.52;;
37787;SDS011;23627;53.302;-6.362;2022-08-02T02:17:42;1.23;;;0.40;;
37787;SDS011;23627;53.302;-6.362;2022-08-02T02:20:14;1.95;;;0.70;;
37787;SDS011;23627;53.302;-6.362;2022-08-02T02:22:41;1.02;;;0.60;;
37787;SDS011;23627;53.302;-6.362;2022-08-02T02:25:08;1.48;;;0.50;;
37787;SDS011;23627;53.302;-6.362;2022-08-02T02:27:35;0.93;;;0.50;;
37787;SDS011;23627;53.302;-6.362;2022-08-02T02:30:04;0.85;;;0.47;;
37787;SDS011;23627;53.302;-6.362;2022-08-02T02:32:31;0.77;;;0.40;;
37787;SDS011;23627;53.302;-6.362;2022-08-02T02:34:58;1.58;;;0.60;;
37787;SDS011;23627;53.302;-6.362;2022-08-02T02:37:27;2.28;;;0.60;;
37787;SDS011;23627;53.302;-6.362;2022-08-02T02:39:54;2.72;;;0.80;;
37787;SDS011;23627;53.302;-6.362;2022-08-02T02:42:22;2.97;;;0.73;;
37787;SDS011;23627;53.302;-6.362;2022-08-02T02:44:52;2.33;;;0.60;;
37787;SDS011;23627;53.302;-6.362;2022-08-02T02:47:19;2.25;;;0.60;;
37787;SDS011;23627;53.302;-6.362;2022-08-02T02:49:47;2.60;;;0.55;;
37787;SDS011;23627;53.302;-6.362;2022-08-02T02:52:15;1.10;;;0.40;;
37787;SDS011;23627;53.302;-6.362;2022-08-02T02:54:42;0.70;;;0.40;;
37787;SDS011;23627;53.302;-6.362;2022-08-02T02:57:11;1.17;;;0.50;;
37787;SDS011;23627;53.302;-6.362;2022-08-02T02:59:38;1.85;;;0.70;;
37787;SDS011;23627;53.302;-6.362;2022-08-02T03:02:05;1.30;;;0.50;;
37787;SDS011;23627;53.302;-6.362;2022-08-02T03:04:31;2.05;;;0.60;;
37787;SDS011;23627;53.302;-6.362;2022-08-02T03:07:00;1.27;;;0.55;;
37787;SDS011;23627;53.302;-6.362;2022-08-02T03:09:28;1.40;;;0.50;;
37787;SDS011;23627;53.302;-6.362;2022-08-02T03:11:54;1.92;;;0.43;;
37787;SDS011;23627;53.302;-6.362;2022-08-02T03:14:20;1.40;;;0.60;;
37787;SDS011;23627;53.302;-6.362;2022-08-02T03:16:48;1.55;;;0.75;;
37787;SDS011;23627;53.302;-6.362;2022-08-02T03:19:16;1.33;;;0.50;;
37787;SDS011;23627;53.302;-6.362;2022-08-02T03:21:43;1.27;;;0.60;;
37787;SDS011;23627;53.302;-6.362;2022-08-02T03:24:10;0.93;;;0.40;;
37787;SDS011;23627;53.302;-6.362;2022-08-02T03:26:37;1.40;;;0.70;;
37787;SDS011;23627;53.302;-6.362;2022-08-02T03:29:06;0.90;;;0.50;;
37787;SDS011;23627;53.302;-6.362;2022-08-02T03:31:33;3.80;;;0.52;;
37787;SDS011;23627;53.302;-6.362;2022-08-02T03:34:00;1.05;;;0.40;;
37787;SDS011;23627;53.302;-6.362;2022-08-02T03:36:29;1.45;;;0.40;;
37787;SDS011;23627;53.302;-6.362;2022-08-02T03:38:57;2.00;;;0.50;;
37787;SDS011;23627;53.302;-6.362;2022-08-02T03:41:25;2.10;;;0.50;;
37787;SDS011;23627;53.302;-6.362;2022-08-02T03:43:53;0.77;;;0.30;;
37787;SDS011;23627;53.302;-6.362;2022-08-02T03:46:20;1.88;;;0.30;;
37787;SDS011;23627;53.302;-6.362;2022-08-02T03:48:48;0.80;;;0.30;;
37787;SDS011;23627;53.302;-6.362;2022-08-02T03:51:15;1.08;;;0.40;;
37787;SDS011;23627;53.302;-6.362;2022-08-02T03:53:42;0.85;;;0.50;;
37787;SDS011;23627;53.302;-6.362;2022-08-02T03:56:08;1.02;;;0.30;;
37787;SDS011;23627;53.302;-6.362;2022-08-02T03:58:34;0.80;;;0.30;;
37787;SDS011;23627;53.302;-6.362;2022-08-02T04:01:00;1.52;;;0.40;;
37787;SDS011;23627;53.302;-6.362;2022-08-02T04:03:26;1.60;;;0.38;;
37787;SDS011;23627;53.302;-6.362;2022-08-02T04:05:52;1.02;;;0.30;;
37787;SDS011;23627;53.302;-6.362;2022-08-02T04:08:18;0.80;;;0.30;;
37787;SDS011;23627;53.302;-6.362;2022-08-02T04:10:44;0.45;;;0.20;;
37787;SDS011;23627;53.302;-6.362;2022-08-02T04:13:30;0.77;;;0.30;;
37787;SDS011;23627;53.302;-6.362;2022-08-02T04:16:02;0.55;;;0.20;;
37787;SDS011;23627;53.302;-6.362;2022-08-02T04:18:33;0.80;;;0.47;;
37787;SDS011;23627;53.302;-6.362;2022-08-02T04:21:03;0.82;;;0.10;;
37787;SDS011;23627;53.302;-6.362;2022-08-02T04:23:32;1.02;;;0.32;;
37787;SDS011;23627;53.302;-6.362;2022-08-02T04:26:01;0.82;;;0.30;;
37787;SDS011;23627;53.302;-6.362;2022-08-02T04:28:28;0.90;;;0.38;;
37787;SDS011;23627;53.302;-6.362;2022-08-02T04:30:55;1.15;;;0.28;;
37787;SDS011;23627;53.302;-6.362;2022-08-02T04:33:22;0.40;;;0.30;;
37787;SDS011;23627;53.302;-6.362;2022-08-02T04:35:49;1.10;;;0.30;;
37787;SDS011;23627;53.302;-6.362;2022-08-02T04:38:15;1.02;;;0.20;;
37787;SDS011;23627;53.302;-6.362;2022-08-02T04:40:51;1.00;;;0.28;;
37787;SDS011;23627;53.302;-6.362;2022-08-02T04:43:18;0.50;;;0.20;;
37787;SDS011;23627;53.302;-6.362;2022-08-02T04:45:44;0.30;;;0.20;;
37787;SDS011;23627;53.302;-6.362;2022-08-02T04:48:13;1.17;;;0.10;;
37787;SDS011;23627;53.302;-6.362;2022-08-02T04:50:39;1.05;;;0.30;;
37787;SDS011;23627;53.302;-6.362;2022-08-02T04:53:05;1.40;;;0.30;;
37787;SDS011;23627;53.302;-6.362;2022-08-02T04:55:30;0.30;;;0.15;;
37787;SDS011;23627;53.302;-6.362;2022-08-02T04:57:57;0.40;;;0.30;;
37787;SDS011;23627;53.302;-6.362;2022-08-02T05:00:23;0.75;;;0.30;;
37787;SDS011;23627;53.302;-6.362;2022-08-02T05:02:50;1.08;;;0.30;;
37787;SDS011;23627;53.302;-6.362;2022-08-02T05:05:16;1.13;;;0.30;;
37787;SDS011;23627;53.302;-6.362;2022-08-02T05:07:43;0.20;;;0.10;;
37787;SDS011;23627;53.302;-6.362;2022-08-02T05:10:09;1.02;;;0.20;;
37787;SDS011;23627;53.302;-6.362;2022-08-02T05:12:38;0.40;;;0.20;;
37787;SDS011;23627;53.302;-6.362;2022-08-02T05:15:04;0.47;;;0.20;;
37787;SDS011;23627;53.302;-6.362;2022-08-02T05:17:30;0.47;;;0.20;;
37787;SDS011;23627;53.302;-6.362;2022-08-02T05:19:56;0.43;;;0.13;;
37787;SDS011;23627;53.302;-6.362;2022-08-02T05:22:22;1.58;;;0.20;;
37787;SDS011;23627;53.302;-6.362;2022-08-02T05:24:47;0.65;;;0.30;;
37787;SDS011;23627;53.302;-6.362;2022-08-02T05:27:13;0.50;;;0.20;;
37787;SDS011;23627;53.302;-6.362;2022-08-02T05:29:39;1.75;;;0.20;;
37787;SDS011;23627;53.302;-6.362;2022-08-02T05:32:04;0.63;;;0.20;;
37787;SDS011;23627;53.302;-6.362;2022-08-02T05:34:30;2.83;;;0.28;;
37787;SDS011;23627;53.302;-6.362;2022-08-02T05:36:56;0.88;;;0.30;;
37787;SDS011;23627;53.302;-6.362;2022-08-02T05:39:22;1.23;;;0.30;;
37787;SDS011;23627;53.302;-6.362;2022-08-02T05:41:47;1.02;;;0.20;;
37787;SDS011;23627;53.302;-6.362;2022-08-02T05:44:13;0.98;;;0.20;;
37787;SDS011;23627;53.302;-6.362;2022-08-02T05:46:39;0.57;;;0.15;;
37787;SDS011;23627;53.302;-6.362;2022-08-02T05:49:05;1.27;;;0.25;;
37787;SDS011;23627;53.302;-6.362;2022-08-02T05:51:38;1.00;;;0.20;;
37787;SDS011;23627;53.302;-6.362;2022-08-02T05:54:30;0.70;;;0.28;;
37787;SDS011;23627;53.302;-6.362;2022-08-02T06:05:13;0.43;;;0.20;;
37787;SDS011;23627;53.302;-6.362;2022-08-02T06:07:46;0.65;;;0.10;;
37787;SDS011;23627;53.302;-6.362;2022-08-02T06:10:14;0.70;;;0.20;;
37787;SDS011;23627;53.302;-6.362;2022-08-02T06:15:18;0.70;;;0.20;;
37787;SDS011;23627;53.302;-6.362;2022-08-02T06:17:45;0.80;;;0.20;;
37787;SDS011;23627;53.302;-6.362;2022-08-02T06:20:12;0.60;;;0.20;;
37787;SDS011;23627;53.302;-6.362;2022-08-02T06:22:43;1.20;;;0.20;;
37787;SDS011;23627;53.302;-6.362;2022-08-02T06:25:12;0.30;;;0.13;;
37787;SDS011;23627;53.302;-6.362;2022-08-02T06:27:39;1.15;;;0.20;;
37787;SDS011;23627;53.302;-6.362;2022-08-02T06:30:06;0.47;;;0.20;;
37787;SDS011;23627;53.302;-6.362;2022-08-02T06:32:33;0.30;;;0.20;;
37787;SDS011;23627;53.302;-6.362;2022-08-02T06:34:59;0.93;;;0.17;;
37787;SDS011;23627;53.302;-6.362;2022-08-02T06:37:33;1.33;;;0.20;;
37787;SDS011;23627;53.302;-6.362;2022-08-02T06:42:37;0.30;;;0.13;;
37787;SDS011;23627;53.302;-6.362;2022-08-02T06:45:15;0.60;;;0.20;;
37787;SDS011;23627;53.302;-6.362;2022-08-02T06:47:41;1.48;;;0.35;;
37787;SDS011;23627;53.302;-6.362;2022-08-02T06:50:07;0.63;;;0.20;;
37787;SDS011;23627;53.302;-6.362;2022-08-02T06:52:34;1.45;;;0.15;;
37787;SDS011;23627;53.302;-6.362;2022-08-02T06:55:01;0.80;;;0.20;;
37787;SDS011;23627;53.302;-6.362;2022-08-02T06:57:28;1.10;;;0.20;;
37787;SDS011;23627;53.302;-6.362;2022-08-02T06:59:56;1.30;;;0.30;;
37787;SDS011;23627;53.302;-6.362;2022-08-02T07:02:25;0.30;;;0.20;;
37787;SDS011;23627;53.302;-6.362;2022-08-02T07:04:51;0.30;;;0.10;;
37787;SDS011;23627;53.302;-6.362;2022-08-02T07:07:18;0.82;;;0.20;;
37787;SDS011;23627;53.302;-6.362;2022-08-02T07:09:44;0.20;;;0.10;;
37787;SDS011;23627;53.302;-6.362;2022-08-02T07:12:10;0.95;;;0.10;;
37787;SDS011;23627;53.302;-6.362;2022-08-02T07:17:57;0.77;;;0.15;;
37787;SDS011;23627;53.302;-6.362;2022-08-02T07:20:23;0.43;;;0.10;;
37787;SDS011;23627;53.302;-6.362;2022-08-02T07:22:49;0.57;;;0.20;;
37787;SDS011;23627;53.302;-6.362;2022-08-02T07:25:15;0.25;;;0.15;;
37787;SDS011;23627;53.302;-6.362;2022-08-02T07:27:41;0.57;;;0.28;;
37787;SDS011;23627;53.302;-6.362;2022-08-02T07:30:07;0.20;;;0.10;;
37787;SDS011;23627;53.302;-6.362;2022-08-02T07:32:33;0.70;;;0.10;;
37787;SDS011;23627;53.302;-6.362;2022-08-02T07:34:59;0.30;;;0.10;;
37787;SDS011;23627;53.302;-6.362;2022-08-02T07:37:29;0.63;;;0.15;;
37787;SDS011;23627;53.302;-6.362;2022-08-02T07:39:56;0.38;;;0.20;;
37787;SDS011;23627;53.302;-6.362;2022-08-02T07:42:22;0.50;;;0.30;;
37787;SDS011;23627;53.302;-6.362;2022-08-02T07:44:48;0.85;;;0.20;;
37787;SDS011;23627;53.302;-6.362;2022-08-02T07:47:15;0.32;;;0.10;;
37787;SDS011;23627;53.302;-6.362;2022-08-02T07:49:41;1.63;;;0.30;;
37787;SDS011;23627;53.302;-6.362;2022-08-02T07:52:07;0.30;;;0.22;;
37787;SDS011;23627;53.302;-6.362;2022-08-02T07:54:33;0.65;;;0.30;;
37787;SDS011;23627;53.302;-6.362;2022-08-02T07:56:58;0.63;;;0.30;;
37787;SDS011;23627;53.302;-6.362;2022-08-02T07:59:25;1.00;;;0.30;;
37787;SDS011;23627;53.302;-6.362;2022-08-02T08:01:51;1.88;;;0.40;;
37787;SDS011;23627;53.302;-6.362;2022-08-02T08:04:17;0.82;;;0.30;;
37787;SDS011;23627;53.302;-6.362;2022-08-02T08:06:44;0.50;;;0.40;;
37787;SDS011;23627;53.302;-6.362;2022-08-02T08:09:13;1.10;;;0.35;;
37787;SDS011;23627;53.302;-6.362;2022-08-02T08:11:39;0.60;;;0.20;;
37787;SDS011;23627;53.302;-6.362;2022-08-02T08:14:05;1.05;;;0.40;;
37787;SDS011;23627;53.302;-6.362;2022-08-02T08:16:31;2.00;;;0.40;;
37787;SDS011;23627;53.302;-6.362;2022-08-02T08:18:57;0.80;;;0.40;;
37787;SDS011;23627;53.302;-6.362;2022-08-02T08:21:23;0.40;;;0.30;;
37787;SDS011;23627;53.302;-6.362;2022-08-02T08:23:48;0.73;;;0.30;;
37787;SDS011;23627;53.302;-6.362;2022-08-02T08:26:14;0.50;;;0.22;;
37787;SDS011;23627;53.302;-6.362;2022-08-02T08:28:40;0.98;;;0.40;;
37787;SDS011;23627;53.302;-6.362;2022-08-02T08:31:08;0.50;;;0.30;;
37787;SDS011;23627;53.302;-6.362;2022-08-02T08:33:33;0.85;;;0.20;;
37787;SDS011;23627;53.302;-6.362;2022-08-02T08:35:59;0.70;;;0.38;;
37787;SDS011;23627;53.302;-6.362;2022-08-02T08:38:25;0.13;;;0.10;;
37787;SDS011;23627;53.302;-6.362;2022-08-02T08:40:50;0.57;;;0.20;;
37787;SDS011;23627;53.302;-6.362;2022-08-02T08:43:16;0.60;;;0.28;;
37787;SDS011;23627;53.302;-6.362;2022-08-02T08:45:43;1.05;;;0.40;;
37787;SDS011;23627;53.302;-6.362;2022-08-02T08:48:10;1.10;;;0.35;;
37787;SDS011;23627;53.302;-6.362;2022-08-02T08:50:49;1.63;;;0.40;;
37787;SDS011;23627;53.302;-6.362;2022-08-02T08:53:20;0.80;;;0.30;;
37787;SDS011;23627;53.302;-6.362;2022-08-02T08:55:51;0.73;;;0.25;;
37787;SDS011;23627;53.302;-6.362;2022-08-02T08:58:17;0.63;;;0.30;;
37787;SDS011;23627;53.302;-6.362;2022-08-02T09:00:43;0.55;;;0.30;;
37787;SDS011;23627;53.302;-6.362;2022-08-02T09:03:10;0.65;;;0.20;;
37787;SDS011;23627;53.302;-6.362;2022-08-02T09:05:37;0.35;;;0.20;;
37787;SDS011;23627;53.302;-6.362;2022-08-02T09:08:04;0.60;;;0.30;;
37787;SDS011;23627;53.302;-6.362;2022-08-02T09:13:19;0.90;;;0.30;;
37787;SDS011;23627;53.302;-6.362;2022-08-02T09:18:34;0.88;;;0.35;;
37787;SDS011;23627;53.302;-6.362;2022-08-02T09:21:05;1.40;;;0.40;;
37787;SDS011;23627;53.302;-6.362;2022-08-02T09:23:34;0.52;;;0.30;;
37787;SDS011;23627;53.302;-6.362;2022-08-02T09:26:03;0.95;;;0.30;;
37787;SDS011;23627;53.302;-6.362;2022-08-02T09:28:33;1.10;;;0.40;;
37787;SDS011;23627;53.302;-6.362;2022-08-02T09:31:08;0.60;;;0.30;;
37787;SDS011;23627;53.302;-6.362;2022-08-02T09:33:36;0.88;;;0.30;;
37787;SDS011;23627;53.302;-6.362;2022-08-02T09:36:03;0.80;;;0.30;;
37787;SDS011;23627;53.302;-6.362;2022-08-02T09:38:40;1.15;;;0.30;;
37787;SDS011;23627;53.302;-6.362;2022-08-02T09:41:22;0.43;;;0.28;;
37787;SDS011;23627;53.302;-6.362;2022-08-02T09:43:49;0.98;;;0.30;;
37787;SDS011;23627;53.302;-6.362;2022-08-02T09:46:19;1.20;;;0.40;;
37787;SDS011;23627;53.302;-6.362;2022-08-02T09:51:17;0.82;;;0.38;;
37787;SDS011;23627;53.302;-6.362;2022-08-02T09:53:45;1.35;;;0.43;;
37787;SDS011;23627;53.302;-6.362;2022-08-02T09:56:12;1.02;;;0.40;;
37787;SDS011;23627;53.302;-6.362;2022-08-02T09:58:38;0.40;;;0.30;;
37787;SDS011;23627;53.302;-6.362;2022-08-02T10:01:04;1.67;;;0.40;;
37787;SDS011;23627;53.302;-6.362;2022-08-02T10:03:30;0.73;;;0.30;;
37787;SDS011;23627;53.302;-6.362;2022-08-02T10:05:56;1.02;;;0.40;;
37787;SDS011;23627;53.302;-6.362;2022-08-02T10:08:23;0.60;;;0.40;;
37787;SDS011;23627;53.302;-6.362;2022-08-02T10:10:49;1.42;;;0.38;;
37787;SDS011;23627;53.302;-6.362;2022-08-02T10:13:28;0.70;;;0.40;;
37787;SDS011;23627;53.302;-6.362;2022-08-02T10:15:55;0.80;;;0.40;;
37787;SDS011;23627;53.302;-6.362;2022-08-02T10:18:21;0.50;;;0.32;;
37787;SDS011;23627;53.302;-6.362;2022-08-02T10:20:47;1.38;;;0.40;;
37787;SDS011;23627;53.302;-6.362;2022-08-02T10:23:15;1.40;;;0.40;;
37787;SDS011;23627;53.302;-6.362;2022-08-02T10:25:43;1.38;;;0.40;;
37787;SDS011;23627;53.302;-6.362;2022-08-02T10:28:12;0.57;;;0.22;;
37787;SDS011;23627;53.302;-6.362;2022-08-02T10:30:41;0.80;;;0.60;;
37787;SDS011;23627;53.302;-6.362;2022-08-02T10:33:09;2.72;;;0.57;;
37787;SDS011;23627;53.302;-6.362;2022-08-02T10:35:37;0.70;;;0.32;;
37787;SDS011;23627;53.302;-6.362;2022-08-02T10:38:04;2.35;;;0.60;;
37787;SDS011;23627;53.302;-6.362;2022-08-02T10:40:49;1.88;;;0.60;;
37787;SDS011;23627;53.302;-6.362;2022-08-02T10:49:00;3.45;;;0.50;;
37787;SDS011;23627;53.302;-6.362;2022-08-02T10:54:39;1.85;;;0.60;;
37787;SDS011;23627;53.302;-6.362;2022-08-02T10:57:13;2.25;;;0.50;;
37787;SDS011;23627;53.302;-6.362;2022-08-02T10:59:51;1.83;;;0.38;;
37787;SDS011;23627;53.302;-6.362;2022-08-02T11:02:32;1.00;;;0.55;;
37787;SDS011;23627;53.302;-6.362;2022-08-02T11:05:00;1.10;;;0.50;;
37787;SDS011;23627;53.302;-6.362;2022-08-02T11:10:41;1.50;;;0.57;;
37787;SDS011;23627;53.302;-6.362;2022-08-02T11:18:19;1.33;;;0.57;;
37787;SDS011;23627;53.302;-6.362;2022-08-02T11:20:46;3.78;;;0.68;;
37787;SDS011;23627;53.302;-6.362;2022-08-02T11:28:54;2.35;;;0.60;;
37787;SDS011;23627;53.302;-6.362;2022-08-02T11:31:21;2.25;;;0.60;;
37787;SDS011;23627;53.302;-6.362;2022-08-02T11:33:47;1.88;;;0.60;;
37787;SDS011;23627;53.302;-6.362;2022-08-02T11:36:14;0.80;;;0.50;;
37787;SDS011;23627;53.302;-6.362;2022-08-02T11:38:41;0.75;;;0.50;;
37787;SDS011;23627;53.302;-6.362;2022-08-02T11:41:07;1.73;;;0.60;;
37787;SDS011;23627;53.302;-6.362;2022-08-02T11:43:33;0.90;;;0.60;;
37787;SDS011;23627;53.302;-6.362;2022-08-02T11:46:01;1.73;;;0.60;;
37787;SDS011;23627;53.302;-6.362;2022-08-02T11:48:28;2.00;;;0.50;;
37787;SDS011;23627;53.302;-6.362;2022-08-02T11:51:06;1.25;;;0.60;;
37787;SDS011;23627;53.302;-6.362;2022-08-02T11:53:43;0.93;;;0.60;;
37787;SDS011;23627;53.302;-6.362;2022-08-02T11:56:14;1.10;;;0.50;;
37787;SDS011;23627;53.302;-6.362;2022-08-02T11:58:58;1.33;;;0.68;;
37787;SDS011;23627;53.302;-6.362;2022-08-02T12:01:39;0.85;;;0.50;;
37787;SDS011;23627;53.302;-6.362;2022-08-02T12:04:16;1.52;;;0.63;;
37787;SDS011;23627;53.302;-6.362;2022-08-02T12:06:43;0.70;;;0.50;;
37787;SDS011;23627;53.302;-6.362;2022-08-02T12:09:17;0.95;;;0.60;;
37787;SDS011;23627;53.302;-6.362;2022-08-02T12:11:43;1.77;;;0.70;;
37787;SDS011;23627;53.302;-6.362;2022-08-02T12:14:15;4.72;;;1.10;;
37787;SDS011;23627;53.302;-6.362;2022-08-02T12:16:42;2.50;;;0.70;;
37787;SDS011;23627;53.302;-6.362;2022-08-02T12:19:26;3.00;;;0.70;;
37787;SDS011;23627;53.302;-6.362;2022-08-02T12:24:37;0.63;;;0.60;;
37787;SDS011;23627;53.302;-6.362;2022-08-02T12:27:04;1.85;;;0.65;;
37787;SDS011;23627;53.302;-6.362;2022-08-02T12:29:39;1.38;;;0.80;;
37787;SDS011;23627;53.302;-6.362;2022-08-02T12:32:06;0.95;;;0.73;;
37787;SDS011;23627;53.302;-6.362;2022-08-02T12:34:33;2.25;;;0.80;;
37787;SDS011;23627;53.302;-6.362;2022-08-02T12:37:02;1.50;;;0.60;;
37787;SDS011;23627;53.302;-6.362;2022-08-02T12:39:43;1.73;;;0.60;;
37787;SDS011;23627;53.302;-6.362;2022-08-02T12:42:11;2.13;;;0.85;;
37787;SDS011;23627;53.302;-6.362;2022-08-02T12:44:48;0.70;;;0.70;;
37787;SDS011;23627;53.302;-6.362;2022-08-02T12:47:19;2.05;;;0.70;;
37787;SDS011;23627;53.302;-6.362;2022-08-02T12:52:38;1.65;;;0.90;;
37787;SDS011;23627;53.302;-6.362;2022-08-02T12:55:14;0.60;;;0.60;;
37787;SDS011;23627;53.302;-6.362;2022-08-02T12:57:51;1.50;;;0.63;;
37787;SDS011;23627;53.302;-6.362;2022-08-02T13:00:28;1.35;;;0.70;;
37787;SDS011;23627;53.302;-6.362;2022-08-02T13:02:56;1.20;;;0.70;;
37787;SDS011;23627;53.302;-6.362;2022-08-02T13:05:23;1.48;;;0.70;;
37787;SDS011;23627;53.302;-6.362;2022-08-02T13:07:50;0.90;;;0.50;;
37787;SDS011;23627;53.302;-6.362;2022-08-02T13:10:17;0.90;;;0.57;;
37787;SDS011;23627;53.302;-6.362;2022-08-02T13:12:43;2.58;;;0.85;;
37787;SDS011;23627;53.302;-6.362;2022-08-02T13:15:09;0.68;;;0.68;;
37787;SDS011;23627;53.302;-6.362;2022-08-02T13:17:35;0.85;;;0.60;;
37787;SDS011;23627;53.302;-6.362;2022-08-02T13:20:02;1.15;;;0.60;;
37787;SDS011;23627;53.302;-6.362;2022-08-02T13:22:29;1.73;;;0.60;;
37787;SDS011;23627;53.302;-6.362;2022-08-02T13:24:54;2.53;;;0.80;;
37787;SDS011;23627;53.302;-6.362;2022-08-02T13:27:20;0.98;;;0.80;;
37787;SDS011;23627;53.302;-6.362;2022-08-02T13:29:47;0.80;;;0.60;;
37787;SDS011;23627;53.302;-6.362;2022-08-02T13:32:14;0.80;;;0.60;;
37787;SDS011;23627;53.302;-6.362;2022-08-02T13:34:40;1.88;;;0.60;;
37787;SDS011;23627;53.302;-6.362;2022-08-02T13:37:06;1.55;;;0.70;;
37787;SDS011;23627;53.302;-6.362;2022-08-02T13:39:31;1.23;;;0.80;;
37787;SDS011;23627;53.302;-6.362;2022-08-02T13:41:57;0.68;;;0.65;;
37787;SDS011;23627;53.302;-6.362;2022-08-02T13:44:23;1.52;;;0.80;;
37787;SDS011;23627;53.302;-6.362;2022-08-02T13:46:49;0.68;;;0.68;;
37787;SDS011;23627;53.302;-6.362;2022-08-02T13:49:15;1.52;;;0.80;;
37787;SDS011;23627;53.302;-6.362;2022-08-02T13:51:41;3.33;;;0.68;;
37787;SDS011;23627;53.302;-6.362;2022-08-02T13:54:06;0.70;;;0.70;;
37787;SDS011;23627;53.302;-6.362;2022-08-02T13:56:32;1.40;;;0.90;;
37787;SDS011;23627;53.302;-6.362;2022-08-02T13:58:58;2.15;;;0.65;;
37787;SDS011;23627;53.302;-6.362;2022-08-02T14:01:24;1.60;;;0.77;;
37787;SDS011;23627;53.302;-6.362;2022-08-02T14:03:50;0.77;;;0.50;;
37787;SDS011;23627;53.302;-6.362;2022-08-02T14:06:19;0.90;;;0.70;;
37787;SDS011;23627;53.302;-6.362;2022-08-02T14:08:47;0.80;;;0.73;;
37787;SDS011;23627;53.302;-6.362;2022-08-02T14:11:14;0.77;;;0.63;;
37787;SDS011;23627;53.302;-6.362;2022-08-02T14:13:39;0.70;;;0.70;;
37787;SDS011;23627;53.302;-6.362;2022-08-02T14:16:05;2.25;;;0.68;;
37787;SDS011;23627;53.302;-6.362;2022-08-02T14:18:31;1.73;;;1.02;;
37787;SDS011;23627;53.302;-6.362;2022-08-02T14:20:57;0.90;;;0.60;;
37787;SDS011;23627;53.302;-6.362;2022-08-02T14:23:22;3.30;;;0.70;;
37787;SDS011;23627;53.302;-6.362;2022-08-02T14:25:48;0.73;;;0.52;;
37787;SDS011;23627;53.302;-6.362;2022-08-02T14:28:14;1.08;;;0.70;;
37787;SDS011;23627;53.302;-6.362;2022-08-02T14:30:40;0.80;;;0.70;;
37787;SDS011;23627;53.302;-6.362;2022-08-02T14:33:06;1.33;;;0.60;;
37787;SDS011;23627;53.302;-6.362;2022-08-02T14:35:32;0.98;;;0.60;;
37787;SDS011;23627;53.302;-6.362;2022-08-02T14:37:58;1.00;;;0.60;;
37787;SDS011;23627;53.302;-6.362;2022-08-02T14:40:24;2.00;;;0.70;;
37787;SDS011;23627;53.302;-6.362;2022-08-02T14:42:50;0.68;;;0.63;;
37787;SDS011;23627;53.302;-6.362;2022-08-02T14:45:19;0.70;;;0.40;;
37787;SDS011;23627;53.302;-6.362;2022-08-02T14:47:50;0.55;;;0.40;;
37787;SDS011;23627;53.302;-6.362;2022-08-02T14:50:16;0.82;;;0.60;;
37787;SDS011;23627;53.302;-6.362;2022-08-02T14:52:44;1.02;;;0.60;;
37787;SDS011;23627;53.302;-6.362;2022-08-02T14:55:11;2.45;;;0.70;;
37787;SDS011;23627;53.302;-6.362;2022-08-02T14:57:37;1.38;;;0.50;;
37787;SDS011;23627;53.302;-6.362;2022-08-02T15:00:03;1.13;;;0.50;;
37787;SDS011;23627;53.302;-6.362;2022-08-02T15:02:30;2.08;;;0.50;;
37787;SDS011;23627;53.302;-6.362;2022-08-02T15:04:56;0.65;;;0.40;;
37787;SDS011;23627;53.302;-6.362;2022-08-02T15:07:22;2.25;;;0.60;;
37787;SDS011;23627;53.302;-6.362;2022-08-02T15:09:47;1.45;;;0.60;;
37787;SDS011;23627;53.302;-6.362;2022-08-02T15:12:13;0.70;;;0.40;;
37787;SDS011;23627;53.302;-6.362;2022-08-02T15:14:40;1.05;;;0.60;;
37787;SDS011;23627;53.302;-6.362;2022-08-02T15:17:06;0.63;;;0.50;;
37787;SDS011;23627;53.302;-6.362;2022-08-02T15:19:32;1.63;;;0.60;;
37787;SDS011;23627;53.302;-6.362;2022-08-02T15:21:58;1.00;;;0.50;;
37787;SDS011;23627;53.302;-6.362;2022-08-02T15:24:24;1.08;;;0.43;;
37787;SDS011;23627;53.302;-6.362;2022-08-02T15:26:50;1.60;;;0.60;;
37787;SDS011;23627;53.302;-6.362;2022-08-02T15:29:17;1.05;;;0.60;;
37787;SDS011;23627;53.302;-6.362;2022-08-02T15:31:42;1.35;;;0.60;;
37787;SDS011;23627;53.302;-6.362;2022-08-02T15:34:08;1.35;;;0.50;;
37787;SDS011;23627;53.302;-6.362;2022-08-02T15:36:35;0.55;;;0.43;;